sensor_id;sensor_type;location;lat;lon;timestamp;P1;durP1;ratioP1;P2;durP2;ratioP2
20462;SDS011;10390;53.566;9.980;2024-03-23T00:54:21;7.10;;;5.70;;
20462;SDS011;10390;53.566;9.980;2024-03-23T00:56:47;6.53;;;5.30;;
20462;SDS011;10390;53.566;9.980;2024-03-23T00:59:12;6.72;;;5.57;;
20462;SDS011;10390;53.566;9.980;2024-03-23T01:01:38;6.70;;;5.30;;
20462;SDS011;10390;53.566;9.980;2024-03-23T01:04:04;6.68;;;5.15;;
20462;SDS011;10390;53.566;9.980;2024-03-23T01:06:30;6.93;;;5.70;;
20462;SDS011;10390;53.566;9.980;2024-03-23T01:08:55;7.75;;;5.63;;
20462;SDS011;10390;53.566;9.980;2024-03-23T01:11:21;6.60;;;5.32;;
20462;SDS011;10390;53.566;9.980;2024-03-23T01:13:46;7.93;;;5.75;;
20462;SDS011;10390;53.566;9.980;2024-03-23T01:16:12;7.40;;;5.38;;
20462;SDS011;10390;53.566;9.980;2024-03-23T01:18:37;7.22;;;5.80;;
20462;SDS011;10390;53.566;9.980;2024-03-23T01:21:03;7.03;;;5.38;;
20462;SDS011;10390;53.566;9.980;2024-03-23T01:23:29;6.57;;;5.05;;
20462;SDS011;10390;53.566;9.980;2024-03-23T01:25:54;6.50;;;4.93;;
20462;SDS011;10390;53.566;9.980;2024-03-23T01:28:20;5.97;;;4.97;;
20462;SDS011;10390;53.566;9.980;2024-03-23T01:30:46;6.70;;;5.03;;
20462;SDS011;10390;53.566;9.980;2024-03-23T01:33:12;6.15;;;5.13;;
20462;SDS011;10390;53.566;9.980;2024-03-23T01:35:38;6.03;;;5.28;;
20462;SDS011;10390;53.566;9.980;2024-03-23T01:38:04;6.65;;;5.18;;
20462;SDS011;10390;53.566;9.980;2024-03-23T01:40:29;6.13;;;5.10;;
20462;SDS011;10390;53.566;9.980;2024-03-23T01:43:04;6.55;;;4.90;;
20462;SDS011;10390;53.566;9.980;2024-03-23T01:45:32;6.95;;;4.90;;
20462;SDS011;10390;53.566;9.980;2024-03-23T01:47:58;6.78;;;5.30;;
20462;SDS011;10390;53.566;9.980;2024-03-23T01:50:25;6.38;;;5.07;;
20462;SDS011;10390;53.566;9.980;2024-03-23T01:52:51;6.78;;;5.20;;
20462;SDS011;10390;53.566;9.980;2024-03-23T01:55:17;8.05;;;5.60;;
20462;SDS011;10390;53.566;9.980;2024-03-23T01:57:43;8.07;;;5.40;;
20462;SDS011;10390;53.566;9.980;2024-03-23T02:00:08;7.13;;;5.78;;
20462;SDS011;10390;53.566;9.980;2024-03-23T02:02:40;7.40;;;5.55;;
20462;SDS011;10390;53.566;9.980;2024-03-23T02:05:09;6.70;;;5.03;;
20462;SDS011;10390;53.566;9.980;2024-03-23T02:07:35;7.90;;;5.70;;
20462;SDS011;10390;53.566;9.980;2024-03-23T02:10:03;7.40;;;5.93;;
20462;SDS011;10390;53.566;9.980;2024-03-23T02:12:28;6.85;;;5.50;;
20462;SDS011;10390;53.566;9.980;2024-03-23T02:14:54;6.80;;;5.47;;
20462;SDS011;10390;53.566;9.980;2024-03-23T02:17:19;6.90;;;5.32;;
20462;SDS011;10390;53.566;9.980;2024-03-23T02:19:45;7.10;;;5.32;;
20462;SDS011;10390;53.566;9.980;2024-03-23T02:22:11;6.45;;;5.13;;
20462;SDS011;10390;53.566;9.980;2024-03-23T02:24:37;6.95;;;5.38;;
20462;SDS011;10390;53.566;9.980;2024-03-23T02:27:04;6.63;;;5.65;;
20462;SDS011;10390;53.566;9.980;2024-03-23T02:29:29;8.30;;;5.45;;
20462;SDS011;10390;53.566;9.980;2024-03-23T02:31:55;6.88;;;5.60;;
20462;SDS011;10390;53.566;9.980;2024-03-23T02:34:20;6.75;;;5.50;;
20462;SDS011;10390;53.566;9.980;2024-03-23T02:36:46;6.70;;;5.72;;
20462;SDS011;10390;53.566;9.980;2024-03-23T02:39:11;6.47;;;5.60;;
20462;SDS011;10390;53.566;9.980;2024-03-23T02:41:37;7.35;;;5.80;;
20462;SDS011;10390;53.566;9.980;2024-03-23T02:44:03;6.35;;;5.43;;
20462;SDS011;10390;53.566;9.980;2024-03-23T02:46:28;6.72;;;5.63;;
20462;SDS011;10390;53.566;9.980;2024-03-23T02:48:54;5.90;;;4.80;;
20462;SDS011;10390;53.566;9.980;2024-03-23T02:51:21;6.40;;;5.68;;
20462;SDS011;10390;53.566;9.980;2024-03-23T02:53:47;7.00;;;5.40;;
20462;SDS011;10390;53.566;9.980;2024-03-23T02:56:12;7.13;;;5.88;;
20462;SDS011;10390;53.566;9.980;2024-03-23T02:58:41;7.15;;;6.10;;
20462;SDS011;10390;53.566;9.980;2024-03-23T03:01:07;6.55;;;5.63;;
20462;SDS011;10390;53.566;9.980;2024-03-23T03:03:32;7.05;;;5.50;;
20462;SDS011;10390;53.566;9.980;2024-03-23T03:05:58;6.40;;;5.68;;
20462;SDS011;10390;53.566;9.980;2024-03-23T03:08:23;7.10;;;6.20;;
20462;SDS011;10390;53.566;9.980;2024-03-23T03:10:49;7.63;;;6.32;;
20462;SDS011;10390;53.566;9.980;2024-03-23T03:13:15;7.15;;;6.45;;
20462;SDS011;10390;53.566;9.980;2024-03-23T03:15:41;6.35;;;5.40;;
20462;SDS011;10390;53.566;9.980;2024-03-23T03:18:07;7.65;;;6.25;;
20462;SDS011;10390;53.566;9.980;2024-03-23T03:20:33;7.18;;;6.40;;
20462;SDS011;10390;53.566;9.980;2024-03-23T03:22:59;7.63;;;5.85;;
20462;SDS011;10390;53.566;9.980;2024-03-23T03:25:25;6.95;;;5.80;;
20462;SDS011;10390;53.566;9.980;2024-03-23T03:27:50;5.85;;;5.22;;
20462;SDS011;10390;53.566;9.980;2024-03-23T03:30:16;6.60;;;5.68;;
20462;SDS011;10390;53.566;9.980;2024-03-23T03:32:42;7.22;;;6.53;;
20462;SDS011;10390;53.566;9.980;2024-03-23T03:35:08;7.03;;;6.15;;
20462;SDS011;10390;53.566;9.980;2024-03-23T03:37:33;7.38;;;6.13;;
20462;SDS011;10390;53.566;9.980;2024-03-23T03:39:59;6.97;;;5.97;;
20462;SDS011;10390;53.566;9.980;2024-03-23T03:42:25;6.85;;;6.00;;
20462;SDS011;10390;53.566;9.980;2024-03-23T03:44:50;7.28;;;6.03;;
20462;SDS011;10390;53.566;9.980;2024-03-23T03:47:16;7.00;;;6.30;;
20462;SDS011;10390;53.566;9.980;2024-03-23T03:49:42;7.40;;;6.63;;
20462;SDS011;10390;53.566;9.980;2024-03-23T03:52:07;7.05;;;6.35;;
20462;SDS011;10390;53.566;9.980;2024-03-23T03:54:33;6.90;;;6.18;;
20462;SDS011;10390;53.566;9.980;2024-03-23T03:56:58;7.50;;;6.32;;
20462;SDS011;10390;53.566;9.980;2024-03-23T03:59:24;6.93;;;5.80;;
20462;SDS011;10390;53.566;9.980;2024-03-23T04:01:49;7.65;;;6.45;;
20462;SDS011;10390;53.566;9.980;2024-03-23T04:04:15;7.10;;;5.97;;
20462;SDS011;10390;53.566;9.980;2024-03-23T04:06:41;8.10;;;6.45;;
20462;SDS011;10390;53.566;9.980;2024-03-23T04:09:08;8.05;;;6.35;;
20462;SDS011;10390;53.566;9.980;2024-03-23T04:11:33;7.50;;;6.78;;
20462;SDS011;10390;53.566;9.980;2024-03-23T04:13:59;7.53;;;6.75;;
20462;SDS011;10390;53.566;9.980;2024-03-23T04:16:28;7.45;;;6.72;;
20462;SDS011;10390;53.566;9.980;2024-03-23T04:18:54;7.80;;;7.00;;
20462;SDS011;10390;53.566;9.980;2024-03-23T04:21:21;7.13;;;5.82;;
20462;SDS011;10390;53.566;9.980;2024-03-23T04:23:47;7.00;;;6.30;;
20462;SDS011;10390;53.566;9.980;2024-03-23T04:26:12;6.53;;;5.90;;
20462;SDS011;10390;53.566;9.980;2024-03-23T04:28:38;7.38;;;6.45;;
20462;SDS011;10390;53.566;9.980;2024-03-23T04:31:04;7.03;;;6.28;;
20462;SDS011;10390;53.566;9.980;2024-03-23T04:33:30;7.15;;;6.18;;
20462;SDS011;10390;53.566;9.980;2024-03-23T04:35:56;7.55;;;6.47;;
20462;SDS011;10390;53.566;9.980;2024-03-23T04:38:22;7.53;;;6.25;;
20462;SDS011;10390;53.566;9.980;2024-03-23T04:40:57;8.25;;;6.57;;
20462;SDS011;10390;53.566;9.980;2024-03-23T04:43:23;7.95;;;6.43;;
20462;SDS011;10390;53.566;9.980;2024-03-23T04:45:49;7.32;;;6.15;;
20462;SDS011;10390;53.566;9.980;2024-03-23T04:48:14;7.05;;;6.32;;
20462;SDS011;10390;53.566;9.980;2024-03-23T04:50:40;8.27;;;6.40;;
20462;SDS011;10390;53.566;9.980;2024-03-23T04:53:06;7.13;;;6.20;;
20462;SDS011;10390;53.566;9.980;2024-03-23T04:55:32;7.57;;;6.60;;
20462;SDS011;10390;53.566;9.980;2024-03-23T04:57:58;7.90;;;6.68;;
20462;SDS011;10390;53.566;9.980;2024-03-23T05:00:23;7.25;;;6.43;;
20462;SDS011;10390;53.566;9.980;2024-03-23T05:02:50;8.35;;;6.50;;
20462;SDS011;10390;53.566;9.980;2024-03-23T05:05:15;7.10;;;6.40;;
20462;SDS011;10390;53.566;9.980;2024-03-23T05:07:41;7.68;;;6.25;;
20462;SDS011;10390;53.566;9.980;2024-03-23T05:10:07;7.60;;;6.55;;
20462;SDS011;10390;53.566;9.980;2024-03-23T05:12:36;7.32;;;6.40;;
20462;SDS011;10390;53.566;9.980;2024-03-23T05:15:03;8.52;;;6.75;;
20462;SDS011;10390;53.566;9.980;2024-03-23T05:17:29;7.57;;;6.28;;
20462;SDS011;10390;53.566;9.980;2024-03-23T05:19:55;7.95;;;6.38;;
20462;SDS011;10390;53.566;9.980;2024-03-23T05:22:22;6.80;;;5.95;;
20462;SDS011;10390;53.566;9.980;2024-03-23T05:24:47;6.95;;;6.25;;
20462;SDS011;10390;53.566;9.980;2024-03-23T05:27:13;8.07;;;6.13;;
20462;SDS011;10390;53.566;9.980;2024-03-23T05:29:39;8.07;;;5.90;;
20462;SDS011;10390;53.566;9.980;2024-03-23T05:32:04;7.80;;;6.53;;
20462;SDS011;10390;53.566;9.980;2024-03-23T05:34:30;7.15;;;5.80;;
20462;SDS011;10390;53.566;9.980;2024-03-23T05:36:55;7.20;;;6.20;;
20462;SDS011;10390;53.566;9.980;2024-03-23T05:39:21;6.82;;;6.13;;
20462;SDS011;10390;53.566;9.980;2024-03-23T05:41:47;7.57;;;6.05;;
20462;SDS011;10390;53.566;9.980;2024-03-23T05:44:13;8.70;;;6.18;;
20462;SDS011;10390;53.566;9.980;2024-03-23T05:46:40;8.18;;;6.40;;
20462;SDS011;10390;53.566;9.980;2024-03-23T05:49:05;7.18;;;5.82;;
20462;SDS011;10390;53.566;9.980;2024-03-23T05:51:31;6.85;;;5.70;;
20462;SDS011;10390;53.566;9.980;2024-03-23T05:53:57;7.82;;;5.80;;
20462;SDS011;10390;53.566;9.980;2024-03-23T05:56:22;7.47;;;5.80;;
20462;SDS011;10390;53.566;9.980;2024-03-23T05:58:50;7.32;;;5.82;;
20462;SDS011;10390;53.566;9.980;2024-03-23T06:01:16;7.00;;;6.07;;
20462;SDS011;10390;53.566;9.980;2024-03-23T06:03:41;7.90;;;6.40;;
20462;SDS011;10390;53.566;9.980;2024-03-23T06:06:08;8.50;;;6.25;;
20462;SDS011;10390;53.566;9.980;2024-03-23T06:08:36;6.85;;;6.13;;
20462;SDS011;10390;53.566;9.980;2024-03-23T06:11:02;7.43;;;6.70;;
20462;SDS011;10390;53.566;9.980;2024-03-23T06:13:28;7.72;;;6.75;;
20462;SDS011;10390;53.566;9.980;2024-03-23T06:15:55;8.02;;;6.65;;
20462;SDS011;10390;53.566;9.980;2024-03-23T06:18:21;8.25;;;7.32;;
20462;SDS011;10390;53.566;9.980;2024-03-23T06:20:47;8.05;;;6.78;;
20462;SDS011;10390;53.566;9.980;2024-03-23T06:23:12;7.78;;;7.00;;
20462;SDS011;10390;53.566;9.980;2024-03-23T06:25:39;8.02;;;6.95;;
20462;SDS011;10390;53.566;9.980;2024-03-23T06:28:05;8.25;;;7.45;;
20462;SDS011;10390;53.566;9.980;2024-03-23T06:30:31;7.57;;;6.78;;
20462;SDS011;10390;53.566;9.980;2024-03-23T06:32:57;7.28;;;6.20;;
20462;SDS011;10390;53.566;9.980;2024-03-23T06:35:22;7.65;;;6.03;;
20462;SDS011;10390;53.566;9.980;2024-03-23T06:37:48;8.40;;;6.80;;
20462;SDS011;10390;53.566;9.980;2024-03-23T06:40:14;6.85;;;6.15;;
20462;SDS011;10390;53.566;9.980;2024-03-23T06:42:39;8.07;;;7.28;;
20462;SDS011;10390;53.566;9.980;2024-03-23T06:45:05;7.40;;;6.60;;
20462;SDS011;10390;53.566;9.980;2024-03-23T06:47:31;8.75;;;6.80;;
20462;SDS011;10390;53.566;9.980;2024-03-23T06:49:57;7.85;;;6.63;;
20462;SDS011;10390;53.566;9.980;2024-03-23T06:52:26;8.35;;;7.13;;
20462;SDS011;10390;53.566;9.980;2024-03-23T06:54:52;8.38;;;7.47;;
20462;SDS011;10390;53.566;9.980;2024-03-23T06:57:18;7.30;;;6.47;;
20462;SDS011;10390;53.566;9.980;2024-03-23T06:59:43;6.65;;;5.97;;
20462;SDS011;10390;53.566;9.980;2024-03-23T07:02:09;7.30;;;6.50;;
20462;SDS011;10390;53.566;9.980;2024-03-23T07:04:35;7.75;;;6.32;;
20462;SDS011;10390;53.566;9.980;2024-03-23T07:07:01;7.82;;;7.03;;
20462;SDS011;10390;53.566;9.980;2024-03-23T07:09:27;7.82;;;6.35;;
20462;SDS011;10390;53.566;9.980;2024-03-23T07:11:54;7.38;;;6.18;;
20462;SDS011;10390;53.566;9.980;2024-03-23T07:14:22;7.53;;;6.60;;
20462;SDS011;10390;53.566;9.980;2024-03-23T07:16:48;6.75;;;5.80;;
20462;SDS011;10390;53.566;9.980;2024-03-23T07:19:15;7.78;;;6.10;;
20462;SDS011;10390;53.566;9.980;2024-03-23T07:21:42;7.35;;;6.28;;
20462;SDS011;10390;53.566;9.980;2024-03-23T07:24:10;7.22;;;6.13;;
20462;SDS011;10390;53.566;9.980;2024-03-23T07:26:36;7.18;;;6.28;;
20462;SDS011;10390;53.566;9.980;2024-03-23T07:29:03;6.40;;;5.65;;
20462;SDS011;10390;53.566;9.980;2024-03-23T07:31:29;7.53;;;6.70;;
20462;SDS011;10390;53.566;9.980;2024-03-23T07:33:55;7.35;;;6.20;;
20462;SDS011;10390;53.566;9.980;2024-03-23T07:36:20;7.22;;;6.20;;
20462;SDS011;10390;53.566;9.980;2024-03-23T07:38:46;7.07;;;6.20;;
20462;SDS011;10390;53.566;9.980;2024-03-23T07:41:15;7.55;;;6.35;;
20462;SDS011;10390;53.566;9.980;2024-03-23T07:43:42;7.18;;;5.75;;
20462;SDS011;10390;53.566;9.980;2024-03-23T07:46:08;6.97;;;5.90;;
20462;SDS011;10390;53.566;9.980;2024-03-23T07:48:34;7.25;;;6.50;;
20462;SDS011;10390;53.566;9.980;2024-03-23T07:51:03;8.20;;;6.78;;
20462;SDS011;10390;53.566;9.980;2024-03-23T07:53:32;7.50;;;6.50;;
20462;SDS011;10390;53.566;9.980;2024-03-23T07:55:59;7.47;;;6.68;;
20462;SDS011;10390;53.566;9.980;2024-03-23T07:58:30;7.25;;;6.43;;
20462;SDS011;10390;53.566;9.980;2024-03-23T08:00:56;7.47;;;6.60;;
20462;SDS011;10390;53.566;9.980;2024-03-23T08:03:28;6.53;;;5.70;;
20462;SDS011;10390;53.566;9.980;2024-03-23T08:05:53;8.32;;;6.03;;
20462;SDS011;10390;53.566;9.980;2024-03-23T08:08:19;7.10;;;6.05;;
20462;SDS011;10390;53.566;9.980;2024-03-23T08:10:50;7.25;;;6.45;;
20462;SDS011;10390;53.566;9.980;2024-03-23T08:13:18;7.40;;;5.95;;
20462;SDS011;10390;53.566;9.980;2024-03-23T08:15:44;6.63;;;5.47;;
20462;SDS011;10390;53.566;9.980;2024-03-23T08:18:13;6.88;;;5.93;;
20462;SDS011;10390;53.566;9.980;2024-03-23T08:20:40;6.97;;;5.95;;
20462;SDS011;10390;53.566;9.980;2024-03-23T08:23:06;7.10;;;5.82;;
20462;SDS011;10390;53.566;9.980;2024-03-23T08:25:32;7.57;;;6.45;;
20462;SDS011;10390;53.566;9.980;2024-03-23T08:27:59;7.22;;;6.13;;
20462;SDS011;10390;53.566;9.980;2024-03-23T08:30:24;7.00;;;6.03;;
20462;SDS011;10390;53.566;9.980;2024-03-23T08:32:50;7.80;;;6.75;;
20462;SDS011;10390;53.566;9.980;2024-03-23T08:35:16;7.32;;;6.22;;
20462;SDS011;10390;53.566;9.980;2024-03-23T08:37:41;7.45;;;6.65;;
20462;SDS011;10390;53.566;9.980;2024-03-23T08:40:07;8.18;;;7.32;;
20462;SDS011;10390;53.566;9.980;2024-03-23T08:42:34;7.72;;;6.93;;
20462;SDS011;10390;53.566;9.980;2024-03-23T08:44:59;7.80;;;7.00;;
20462;SDS011;10390;53.566;9.980;2024-03-23T08:47:25;7.53;;;6.68;;
20462;SDS011;10390;53.566;9.980;2024-03-23T08:49:51;7.90;;;7.10;;
20462;SDS011;10390;53.566;9.980;2024-03-23T08:52:16;8.10;;;7.30;;
20462;SDS011;10390;53.566;9.980;2024-03-23T08:54:42;7.60;;;6.85;;
20462;SDS011;10390;53.566;9.980;2024-03-23T08:57:08;7.95;;;7.15;;
20462;SDS011;10390;53.566;9.980;2024-03-23T08:59:34;8.55;;;7.38;;
20462;SDS011;10390;53.566;9.980;2024-03-23T09:01:59;8.18;;;6.60;;
20462;SDS011;10390;53.566;9.980;2024-03-23T09:04:25;7.72;;;6.93;;
20462;SDS011;10390;53.566;9.980;2024-03-23T09:06:51;7.72;;;6.82;;
20462;SDS011;10390;53.566;9.980;2024-03-23T09:09:16;7.47;;;6.32;;
20462;SDS011;10390;53.566;9.980;2024-03-23T09:11:42;7.38;;;6.68;;
20462;SDS011;10390;53.566;9.980;2024-03-23T09:14:08;8.25;;;7.40;;
20462;SDS011;10390;53.566;9.980;2024-03-23T09:16:34;7.57;;;6.50;;
20462;SDS011;10390;53.566;9.980;2024-03-23T09:19:00;7.72;;;6.53;;
20462;SDS011;10390;53.566;9.980;2024-03-23T09:21:25;7.90;;;6.60;;
20462;SDS011;10390;53.566;9.980;2024-03-23T09:23:51;7.93;;;6.38;;
20462;SDS011;10390;53.566;9.980;2024-03-23T09:26:16;7.75;;;6.55;;
20462;SDS011;10390;53.566;9.980;2024-03-23T09:28:42;8.43;;;7.22;;
20462;SDS011;10390;53.566;9.980;2024-03-23T09:31:08;8.43;;;6.85;;
20462;SDS011;10390;53.566;9.980;2024-03-23T09:33:35;7.53;;;6.70;;
20462;SDS011;10390;53.566;9.980;2024-03-23T09:36:04;7.63;;;6.72;;
20462;SDS011;10390;53.566;9.980;2024-03-23T09:38:30;8.23;;;6.60;;
20462;SDS011;10390;53.566;9.980;2024-03-23T09:40:56;7.00;;;6.30;;
20462;SDS011;10390;53.566;9.980;2024-03-23T09:43:22;8.32;;;6.35;;
20462;SDS011;10390;53.566;9.980;2024-03-23T09:45:48;7.05;;;6.35;;
20462;SDS011;10390;53.566;9.980;2024-03-23T09:48:14;7.32;;;5.95;;
20462;SDS011;10390;53.566;9.980;2024-03-23T09:50:41;6.90;;;6.20;;
20462;SDS011;10390;53.566;9.980;2024-03-23T09:53:08;7.55;;;6.40;;
20462;SDS011;10390;53.566;9.980;2024-03-23T09:55:41;7.57;;;6.28;;
20462;SDS011;10390;53.566;9.980;2024-03-23T09:58:08;7.75;;;6.20;;
20462;SDS011;10390;53.566;9.980;2024-03-23T10:00:37;7.68;;;6.40;;
20462;SDS011;10390;53.566;9.980;2024-03-23T10:03:03;7.68;;;6.38;;
20462;SDS011;10390;53.566;9.980;2024-03-23T10:05:31;8.05;;;7.20;;
20462;SDS011;10390;53.566;9.980;2024-03-23T10:07:59;7.55;;;6.07;;
20462;SDS011;10390;53.566;9.980;2024-03-23T10:10:44;7.70;;;6.90;;
20462;SDS011;10390;53.566;9.980;2024-03-23T10:13:10;7.68;;;6.75;;
20462;SDS011;10390;53.566;9.980;2024-03-23T10:15:48;7.57;;;6.35;;
20462;SDS011;10390;53.566;9.980;2024-03-23T10:18:23;7.72;;;6.80;;
20462;SDS011;10390;53.566;9.980;2024-03-23T10:23:44;8.93;;;6.70;;
20462;SDS011;10390;53.566;9.980;2024-03-23T10:28:59;8.77;;;7.97;;
20462;SDS011;10390;53.566;9.980;2024-03-23T10:31:27;8.63;;;7.72;;
20462;SDS011;10390;53.566;9.980;2024-03-23T10:33:53;8.27;;;6.80;;
20462;SDS011;10390;53.566;9.980;2024-03-23T10:36:20;7.40;;;6.60;;
20462;SDS011;10390;53.566;9.980;2024-03-23T10:38:46;6.85;;;5.90;;
20462;SDS011;10390;53.566;9.980;2024-03-23T10:41:14;7.15;;;6.30;;
20462;SDS011;10390;53.566;9.980;2024-03-23T10:43:40;8.57;;;6.88;;
20462;SDS011;10390;53.566;9.980;2024-03-23T10:46:05;7.00;;;5.70;;
20462;SDS011;10390;53.566;9.980;2024-03-23T10:48:32;7.80;;;5.97;;
20462;SDS011;10390;53.566;9.980;2024-03-23T10:50:58;7.65;;;6.30;;
20462;SDS011;10390;53.566;9.980;2024-03-23T10:53:25;8.18;;;6.65;;
20462;SDS011;10390;53.566;9.980;2024-03-23T10:55:52;6.85;;;5.95;;
20462;SDS011;10390;53.566;9.980;2024-03-23T10:58:19;7.65;;;6.38;;
20462;SDS011;10390;53.566;9.980;2024-03-23T11:01:10;7.55;;;6.85;;
20462;SDS011;10390;53.566;9.980;2024-03-23T11:03:36;7.07;;;5.90;;
20462;SDS011;10390;53.566;9.980;2024-03-23T11:06:03;7.00;;;6.25;;
20462;SDS011;10390;53.566;9.980;2024-03-23T11:08:34;7.63;;;6.40;;
20462;SDS011;10390;53.566;9.980;2024-03-23T11:11:19;8.15;;;7.35;;
20462;SDS011;10390;53.566;9.980;2024-03-23T11:13:53;6.75;;;6.03;;
20462;SDS011;10390;53.566;9.980;2024-03-23T11:21:59;7.32;;;6.18;;
20462;SDS011;10390;53.566;9.980;2024-03-23T11:24:26;7.63;;;6.53;;
20462;SDS011;10390;53.566;9.980;2024-03-23T11:26:51;7.03;;;5.75;;
20462;SDS011;10390;53.566;9.980;2024-03-23T11:29:17;7.50;;;6.03;;
20462;SDS011;10390;53.566;9.980;2024-03-23T11:31:50;6.95;;;5.82;;
20462;SDS011;10390;53.566;9.980;2024-03-23T11:34:17;7.88;;;6.55;;
20462;SDS011;10390;53.566;9.980;2024-03-23T11:36:43;7.22;;;5.97;;
20462;SDS011;10390;53.566;9.980;2024-03-23T11:39:16;7.50;;;6.32;;
20462;SDS011;10390;53.566;9.980;2024-03-23T11:41:49;6.82;;;6.07;;
20462;SDS011;10390;53.566;9.980;2024-03-23T11:46:48;8.82;;;6.95;;
20462;SDS011;10390;53.566;9.980;2024-03-23T11:49:27;7.72;;;6.88;;
20462;SDS011;10390;53.566;9.980;2024-03-23T11:51:54;7.20;;;5.80;;
20462;SDS011;10390;53.566;9.980;2024-03-23T11:54:22;7.05;;;5.68;;
20462;SDS011;10390;53.566;9.980;2024-03-23T11:56:58;6.55;;;5.72;;
20462;SDS011;10390;53.566;9.980;2024-03-23T11:59:39;7.53;;;6.07;;
20462;SDS011;10390;53.566;9.980;2024-03-23T12:02:06;6.25;;;5.45;;
20462;SDS011;10390;53.566;9.980;2024-03-23T12:04:33;6.97;;;6.00;;
20462;SDS011;10390;53.566;9.980;2024-03-23T12:07:19;7.38;;;6.50;;
20462;SDS011;10390;53.566;9.980;2024-03-23T12:09:46;7.10;;;5.80;;
20462;SDS011;10390;53.566;9.980;2024-03-23T12:12:26;7.72;;;6.30;;
20462;SDS011;10390;53.566;9.980;2024-03-23T12:15:05;6.93;;;6.05;;
20462;SDS011;10390;53.566;9.980;2024-03-23T12:17:33;7.22;;;6.35;;
20462;SDS011;10390;53.566;9.980;2024-03-23T12:19:59;7.38;;;6.47;;
20462;SDS011;10390;53.566;9.980;2024-03-23T12:22:25;6.88;;;6.18;;
20462;SDS011;10390;53.566;9.980;2024-03-23T12:24:52;6.72;;;6.03;;
20462;SDS011;10390;53.566;9.980;2024-03-23T12:27:18;7.38;;;6.25;;
20462;SDS011;10390;53.566;9.980;2024-03-23T12:29:43;8.02;;;6.35;;
20462;SDS011;10390;53.566;9.980;2024-03-23T12:32:12;6.72;;;5.85;;
20462;SDS011;10390;53.566;9.980;2024-03-23T12:34:39;6.70;;;6.00;;
20462;SDS011;10390;53.566;9.980;2024-03-23T12:37:04;6.60;;;5.82;;
20462;SDS011;10390;53.566;9.980;2024-03-23T12:39:34;7.90;;;6.45;;
20462;SDS011;10390;53.566;9.980;2024-03-23T12:42:00;7.13;;;6.35;;
20462;SDS011;10390;53.566;9.980;2024-03-23T12:44:27;7.30;;;6.13;;
20462;SDS011;10390;53.566;9.980;2024-03-23T12:46:53;8.63;;;6.75;;
20462;SDS011;10390;53.566;9.980;2024-03-23T12:49:19;7.85;;;6.18;;
20462;SDS011;10390;53.566;9.980;2024-03-23T12:51:46;7.72;;;6.60;;
20462;SDS011;10390;53.566;9.980;2024-03-23T12:54:19;7.05;;;6.03;;
20462;SDS011;10390;53.566;9.980;2024-03-23T12:56:45;7.03;;;6.30;;
20462;SDS011;10390;53.566;9.980;2024-03-23T12:59:11;7.93;;;6.68;;
20462;SDS011;10390;53.566;9.980;2024-03-23T13:01:38;7.43;;;6.63;;
20462;SDS011;10390;53.566;9.980;2024-03-23T13:04:03;7.75;;;6.15;;
20462;SDS011;10390;53.566;9.980;2024-03-23T13:06:29;7.43;;;5.57;;
20462;SDS011;10390;53.566;9.980;2024-03-23T13:08:59;7.93;;;6.70;;
20462;SDS011;10390;53.566;9.980;2024-03-23T13:11:28;7.15;;;6.32;;
20462;SDS011;10390;53.566;9.980;2024-03-23T13:13:54;6.85;;;5.85;;
20462;SDS011;10390;53.566;9.980;2024-03-23T13:16:20;6.65;;;6.05;;
20462;SDS011;10390;53.566;9.980;2024-03-23T13:18:45;7.32;;;6.53;;
20462;SDS011;10390;53.566;9.980;2024-03-23T13:21:11;7.60;;;6.80;;
20462;SDS011;10390;53.566;9.980;2024-03-23T13:23:37;6.72;;;6.03;;
20462;SDS011;10390;53.566;9.980;2024-03-23T13:26:05;7.00;;;6.30;;
20462;SDS011;10390;53.566;9.980;2024-03-23T13:28:30;7.47;;;6.68;;
20462;SDS011;10390;53.566;9.980;2024-03-23T13:30:56;6.95;;;6.25;;
20462;SDS011;10390;53.566;9.980;2024-03-23T13:33:28;7.30;;;6.35;;
20462;SDS011;10390;53.566;9.980;2024-03-23T13:35:55;6.32;;;5.40;;
20462;SDS011;10390;53.566;9.980;2024-03-23T13:38:21;6.43;;;5.55;;
20462;SDS011;10390;53.566;9.980;2024-03-23T13:40:54;8.23;;;6.40;;
20462;SDS011;10390;53.566;9.980;2024-03-23T13:43:24;7.00;;;6.30;;
20462;SDS011;10390;53.566;9.980;2024-03-23T13:45:56;6.68;;;5.95;;
20462;SDS011;10390;53.566;9.980;2024-03-23T13:48:23;6.82;;;5.80;;
20462;SDS011;10390;53.566;9.980;2024-03-23T13:50:57;6.57;;;5.57;;
20462;SDS011;10390;53.566;9.980;2024-03-23T13:53:26;7.15;;;5.70;;
20462;SDS011;10390;53.566;9.980;2024-03-23T13:55:52;7.10;;;6.18;;
20462;SDS011;10390;53.566;9.980;2024-03-23T13:58:18;6.60;;;5.90;;
20462;SDS011;10390;53.566;9.980;2024-03-23T14:00:43;7.72;;;6.13;;
20462;SDS011;10390;53.566;9.980;2024-03-23T14:03:09;6.55;;;5.85;;
20462;SDS011;10390;53.566;9.980;2024-03-23T14:05:36;6.20;;;5.60;;
20462;SDS011;10390;53.566;9.980;2024-03-23T14:08:05;6.32;;;5.40;;
20462;SDS011;10390;53.566;9.980;2024-03-23T14:10:31;6.90;;;5.55;;
20462;SDS011;10390;53.566;9.980;2024-03-23T14:12:57;7.30;;;5.75;;
20462;SDS011;10390;53.566;9.980;2024-03-23T14:15:25;6.18;;;5.55;;
20462;SDS011;10390;53.566;9.980;2024-03-23T14:17:51;7.15;;;5.90;;
20462;SDS011;10390;53.566;9.980;2024-03-23T14:20:17;6.47;;;5.78;;
20462;SDS011;10390;53.566;9.980;2024-03-23T14:22:42;6.90;;;6.00;;
20462;SDS011;10390;53.566;9.980;2024-03-23T14:25:08;7.43;;;6.00;;
20462;SDS011;10390;53.566;9.980;2024-03-23T14:27:34;6.32;;;5.10;;
20462;SDS011;10390;53.566;9.980;2024-03-23T14:30:03;7.43;;;5.78;;
20462;SDS011;10390;53.566;9.980;2024-03-23T14:32:30;7.70;;;7.00;;
20462;SDS011;10390;53.566;9.980;2024-03-23T14:34:59;6.70;;;6.00;;
20462;SDS011;10390;53.566;9.980;2024-03-23T14:37:32;6.22;;;5.20;;
20462;SDS011;10390;53.566;9.980;2024-03-23T14:39:58;6.80;;;5.85;;
20462;SDS011;10390;53.566;9.980;2024-03-23T14:42:24;6.50;;;5.50;;
20462;SDS011;10390;53.566;9.980;2024-03-23T14:44:50;6.63;;;5.20;;
20462;SDS011;10390;53.566;9.980;2024-03-23T14:47:19;6.43;;;5.72;;
20462;SDS011;10390;53.566;9.980;2024-03-23T14:49:45;7.20;;;5.82;;
20462;SDS011;10390;53.566;9.980;2024-03-23T14:52:12;6.57;;;5.40;;
20462;SDS011;10390;53.566;9.980;2024-03-23T14:54:38;6.85;;;6.10;;
20462;SDS011;10390;53.566;9.980;2024-03-23T14:57:04;6.90;;;5.60;;
20462;SDS011;10390;53.566;9.980;2024-03-23T14:59:31;6.13;;;5.53;;
20462;SDS011;10390;53.566;9.980;2024-03-23T15:01:57;7.18;;;5.95;;
20462;SDS011;10390;53.566;9.980;2024-03-23T15:04:23;7.07;;;5.90;;
20462;SDS011;10390;53.566;9.980;2024-03-23T15:06:48;6.93;;;5.78;;
20462;SDS011;10390;53.566;9.980;2024-03-23T15:09:15;7.10;;;6.40;;
20462;SDS011;10390;53.566;9.980;2024-03-23T15:11:40;7.35;;;6.50;;
20462;SDS011;10390;53.566;9.980;2024-03-23T15:14:06;6.82;;;6.13;;
20462;SDS011;10390;53.566;9.980;2024-03-23T15:16:32;7.07;;;5.70;;
20462;SDS011;10390;53.566;9.980;2024-03-23T15:18:58;7.10;;;6.18;;
20462;SDS011;10390;53.566;9.980;2024-03-23T15:21:24;7.30;;;6.30;;
20462;SDS011;10390;53.566;9.980;2024-03-23T15:23:49;7.53;;;6.15;;
20462;SDS011;10390;53.566;9.980;2024-03-23T15:26:15;6.38;;;5.45;;
20462;SDS011;10390;53.566;9.980;2024-03-23T15:28:43;6.93;;;6.18;;
20462;SDS011;10390;53.566;9.980;2024-03-23T15:31:21;6.55;;;5.30;;
20462;SDS011;10390;53.566;9.980;2024-03-23T15:33:47;6.80;;;5.43;;
20462;SDS011;10390;53.566;9.980;2024-03-23T15:36:13;6.22;;;5.28;;
20462;SDS011;10390;53.566;9.980;2024-03-23T15:38:39;6.28;;;5.35;;
20462;SDS011;10390;53.566;9.980;2024-03-23T15:41:04;6.18;;;5.57;;
20462;SDS011;10390;53.566;9.980;2024-03-23T15:43:30;6.75;;;5.95;;
20462;SDS011;10390;53.566;9.980;2024-03-23T15:46:04;7.95;;;6.10;;
20462;SDS011;10390;53.566;9.980;2024-03-23T15:48:36;7.47;;;6.50;;
20462;SDS011;10390;53.566;9.980;2024-03-23T15:51:02;6.60;;;5.32;;
20462;SDS011;10390;53.566;9.980;2024-03-23T15:53:32;6.93;;;5.25;;